createdAt,value
2018-12-27T00:00:39.377Z,102690.48
2018-12-27T00:03:29.010Z,102687.03
2018-12-27T00:06:10.495Z,102688.28
2018-12-27T00:09:00.170Z,102677.34
2018-12-27T00:11:42.564Z,102708.52
2018-12-27T00:14:33.963Z,102699.33
2018-12-27T00:17:16.459Z,102699.15
2018-12-27T00:22:54.963Z,102674.02
2018-12-27T00:25:44.578Z,102665.39
2018-12-27T00:28:29.425Z,102692.95
2018-12-27T00:31:21.066Z,102690.14
2018-12-27T00:34:03.354Z,102667.48
2018-12-27T00:39:41.823Z,102662.57
2018-12-27T00:42:31.331Z,102657.13
2018-12-27T00:45:13.395Z,102649.06
2018-12-27T00:48:03.283Z,102652.33
2018-12-27T00:50:53.369Z,102656.72
2018-12-27T00:53:43.223Z,102680.27
2018-12-27T00:56:25.424Z,102653.70
2018-12-27T00:59:15.436Z,102672.31
2018-12-27T01:01:57.038Z,102681.78
2018-12-27T01:04:39.107Z,102663.92
2018-12-27T01:07:28.627Z,102676.86
2018-12-27T01:10:10.485Z,102649.30
2018-12-27T01:13:00.179Z,102645.59
2018-12-27T01:15:42.307Z,102648.94
2018-12-27T01:21:34.873Z,102646.49
2018-12-27T01:24:24.372Z,102675.49
2018-12-27T01:27:06.803Z,102650.45
2018-12-27T01:30:15.605Z,102645.31
2018-12-27T01:32:57.889Z,102637.34
2018-12-27T01:35:47.707Z,102661.69
2018-12-27T01:38:30.049Z,102660.25
2018-12-27T01:44:14.181Z,102622.52
2018-12-27T01:47:03.687Z,102647.64
2018-12-27T01:49:50.299Z,102623.16
2018-12-27T01:52:35.903Z,102650.05
2018-12-27T01:55:25.937Z,102648.38
2018-12-27T01:58:08.567Z,102619.36
2018-12-27T02:00:58.403Z,102615.09
2018-12-27T02:03:48.130Z,102614.84
2018-12-27T02:06:30.552Z,102639.43
2018-12-27T02:12:09.559Z,102604.28
2018-12-27T02:14:59.013Z,102627.16
2018-12-27T02:17:40.705Z,102600.95
2018-12-27T02:23:18.513Z,102622.17
2018-12-27T02:26:08.332Z,102625.72
2018-12-27T02:28:51.315Z,102593.34
2018-12-27T02:34:29.323Z,102594.66
2018-12-27T02:37:19.155Z,102623.28
2018-12-27T02:40:01.178Z,102594.50
2018-12-27T02:51:36.893Z,102624.30
2018-12-27T02:54:26.944Z,102597.48
2018-12-27T02:57:09.303Z,102587.28
2018-12-27T02:59:59.096Z,102576.57
2018-12-27T03:02:41.534Z,102597.75
2018-12-27T03:05:23.454Z,102602.13
2018-12-27T03:08:13.916Z,102605.08
2018-12-27T03:10:56.322Z,102599.91
2018-12-27T03:13:46.107Z,102577.12
2018-12-27T03:16:28.153Z,102604.59
2018-12-27T03:19:17.791Z,102576.97
2018-12-27T03:21:59.611Z,102570.73
2018-12-27T03:24:49.613Z,102569.02
2018-12-27T03:27:32.027Z,102591.31
2018-12-27T03:33:09.981Z,102561.27
2018-12-27T03:38:48.067Z,102554.94
2018-12-27T03:41:37.817Z,102559.44
2018-12-27T03:44:19.631Z,102583.15
2018-12-27T03:49:44.862Z,102575.15
2018-12-27T03:52:34.368Z,102551.53
2018-12-27T03:55:24.399Z,102577.75
2018-12-27T03:58:06.397Z,102552.58
2018-12-27T04:00:55.862Z,102557.44
2018-12-27T04:03:39.571Z,102570.70
2018-12-27T04:06:22.095Z,102543.47
2018-12-27T04:09:11.954Z,102551.86
2018-12-27T04:11:54.950Z,102551.80
2018-12-27T04:17:31.960Z,102567.06
2018-12-27T04:31:44.219Z,102539.04
2018-12-27T04:37:27.930Z,102525.68
2018-12-27T04:40:18.031Z,102548.05
2018-12-27T04:42:59.872Z,102521.76
2018-12-27T04:45:49.617Z,102522.38
2018-12-27T04:48:31.158Z,102541.63
2018-12-27T04:54:10.854Z,102544.30
2018-12-27T04:59:46.984Z,102509.55
2018-12-27T05:02:36.696Z,102512.73
2018-12-27T05:05:19.861Z,102513.68
2018-12-27T05:08:09.272Z,102513.48
2018-12-27T05:10:51.484Z,102510.75
2018-12-27T05:14:00.513Z,102534.29
2018-12-27T05:16:42.495Z,102512.28
2018-12-27T05:19:32.223Z,102523.45
2018-12-27T05:22:13.779Z,102514.34
2018-12-27T05:27:51.224Z,102513.44
2018-12-27T05:30:40.857Z,102513.17
2018-12-27T05:33:22.859Z,102512.79
2018-12-27T05:36:12.490Z,102521.31
2018-12-27T05:38:56.025Z,102520.03
2018-12-27T05:41:45.242Z,102544.70
2018-12-27T05:44:27.507Z,102513.98
2018-12-27T05:47:17.027Z,102518.88
2018-12-27T05:49:59.118Z,102519.34
2018-12-27T05:52:48.757Z,102518.16
2018-12-27T05:55:34.490Z,102517.45
2018-12-27T05:58:24.517Z,102516.61
2018-12-27T06:01:06.657Z,102515.45
2018-12-27T06:03:56.054Z,102541.27
2018-12-27T06:06:38.056Z,102520.78
2018-12-27T06:09:27.650Z,102514.20
2018-12-27T06:12:10.350Z,102519.36
2018-12-27T06:14:59.680Z,102525.37
2018-12-27T06:17:42.157Z,102519.88
2018-12-27T06:23:33.434Z,102525.11
2018-12-27T06:26:24.866Z,102524.73
2018-12-27T06:29:06.949Z,102523.59
2018-12-27T06:31:58.181Z,102536.21
2018-12-27T06:34:41.435Z,102558.59
2018-12-27T06:37:31.100Z,102544.90
2018-12-27T06:40:13.335Z,102534.41
2018-12-27T06:43:02.961Z,102529.25
2018-12-27T06:45:45.784Z,102523.92
2018-12-27T06:48:54.410Z,102548.83
2018-12-27T06:51:39.117Z,102545.81
2018-12-27T06:54:28.790Z,102532.39
2018-12-27T07:00:13.482Z,102507.98
2018-12-27T07:02:56.319Z,102511.43
2018-12-27T07:05:39.661Z,102536.02
2018-12-27T07:08:29.282Z,102514.92
2018-12-27T07:11:11.870Z,102536.57
2018-12-27T07:14:01.526Z,102533.78
2018-12-27T07:16:44.077Z,102530.52
2018-12-27T07:19:33.698Z,102503.41
2018-12-27T07:22:04.617Z,102522.19
2018-12-27T07:24:54.280Z,102490.52
2018-12-27T07:27:36.644Z,102496.06
2018-12-27T07:30:26.040Z,102493.57
2018-12-27T07:33:08.619Z,102493.54
2018-12-27T07:35:38.892Z,102517.43
2018-12-27T07:38:30.514Z,102491.88
2018-12-27T07:41:20.223Z,102487.78
2018-12-27T07:44:02.280Z,102474.79
2018-12-27T07:46:51.884Z,102475.66
2018-12-27T07:49:34.125Z,102485.20
2018-12-27T07:52:24.287Z,102509.52
2018-12-27T07:55:06.437Z,102487.44
2018-12-27T08:00:58.849Z,102494.40
2018-12-27T08:06:49.055Z,102512.21
2018-12-27T08:12:40.694Z,102511.97
2018-12-27T08:15:23.059Z,102517.52
2018-12-27T08:18:12.431Z,102498.39
2018-12-27T08:20:55.290Z,102498.23
2018-12-27T08:26:46.316Z,102513.64
2018-12-27T08:32:37.311Z,102500.38
2018-12-27T08:35:26.744Z,102522.47
2018-12-27T08:38:09.269Z,102517.08
2018-12-27T08:40:58.610Z,102504.87
2018-12-27T08:43:40.575Z,102493.47
2018-12-27T08:49:31.126Z,102498.16
2018-12-27T08:52:20.522Z,102496.52
2018-12-27T08:55:09.913Z,102515.34
2018-12-27T08:57:59.468Z,102496.47
2018-12-27T09:00:42.084Z,102514.59
2018-12-27T09:03:53.864Z,102491.73
2018-12-27T09:06:36.652Z,102494.98
2018-12-27T09:09:26.374Z,102497.24
2018-12-27T09:12:08.616Z,102526.59
2018-12-27T09:17:52.972Z,102532.33
2018-12-27T09:20:35.310Z,102505.05
2018-12-27T09:26:27.626Z,102493.38
2018-12-27T09:29:16.995Z,102490.39
2018-12-27T09:31:47.336Z,102514.56
2018-12-27T09:34:36.946Z,102508.59
2018-12-27T09:37:18.858Z,102488.26
2018-12-27T09:40:08.633Z,102502.44
2018-12-27T09:42:58.732Z,102517.25
2018-12-27T09:48:36.467Z,102507.91
2018-12-27T09:54:16.936Z,102471.53
2018-12-27T09:56:47.246Z,102505.72
2018-12-27T09:59:36.842Z,102505.03
2018-12-27T10:02:07.421Z,102505.28
2018-12-27T10:08:00.248Z,102480.27
2018-12-27T10:10:49.961Z,102477.87
2018-12-27T10:13:32.057Z,102487.66
2018-12-27T10:16:21.788Z,102512.93
2018-12-27T10:19:04.042Z,102492.68
2018-12-27T10:21:53.650Z,102510.84
2018-12-27T10:24:37.447Z,102482.66
2018-12-27T10:27:27.020Z,102490.87
2018-12-27T10:30:09.820Z,102513.59
2018-12-27T10:32:59.420Z,102507.25
2018-12-27T10:35:29.763Z,102505.91
2018-12-27T10:38:19.642Z,102494.67
2018-12-27T10:41:02.309Z,102520.44
2018-12-27T10:43:51.962Z,102493.19
2018-12-27T10:46:34.111Z,102509.19
2018-12-27T10:49:04.337Z,102509.24
2018-12-27T10:51:34.681Z,102506.80
2018-12-27T10:54:24.082Z,102486.66
2018-12-27T10:57:13.783Z,102502.22
2018-12-27T10:59:56.192Z,102479.19
2018-12-27T11:02:45.823Z,102498.70
2018-12-27T11:05:35.541Z,102469.23
2018-12-27T11:08:18.013Z,102485.93
2018-12-27T11:11:07.760Z,102457.28
2018-12-27T11:13:50.537Z,102458.33
2018-12-27T11:16:39.999Z,102482.65
2018-12-27T11:19:22.025Z,102482.33
2018-12-27T11:24:59.959Z,102481.52
2018-12-27T11:30:38.099Z,102456.03
2018-12-27T11:33:41.272Z,102474.82
2018-12-27T11:36:17.262Z,102487.73
2018-12-27T11:39:03.163Z,102487.37
2018-12-27T11:41:47.727Z,102481.41
2018-12-27T11:44:37.356Z,102456.48
2018-12-27T11:47:07.714Z,102475.44
2018-12-27T11:50:16.790Z,102453.92
2018-12-27T11:55:55.300Z,102468.74
2018-12-27T11:58:44.985Z,102450.56
2018-12-27T12:07:12.875Z,102463.42
2018-12-27T12:09:43.997Z,102468.50
2018-12-27T12:12:33.608Z,102448.48
2018-12-27T12:18:12.032Z,102458.52
2018-12-27T12:21:01.738Z,102458.93
2018-12-27T12:23:44.228Z,102440.53
2018-12-27T12:26:35.667Z,102441.19
2018-12-27T12:32:08.665Z,102460.14
2018-12-27T12:34:58.602Z,102437.86
2018-12-27T12:37:48.897Z,102463.11
2018-12-27T12:40:31.315Z,102442.00
2018-12-27T12:43:40.410Z,102439.36
2018-12-27T12:46:24.596Z,102439.08
2018-12-27T12:49:14.233Z,102438.03
2018-12-27T12:51:57.678Z,102467.98
2018-12-27T12:54:47.075Z,102441.36
2018-12-27T12:57:29.345Z,102460.39
2018-12-27T13:00:21.214Z,102441.76
2018-12-27T13:03:03.679Z,102462.06
2018-12-27T13:05:55.332Z,102436.25
2018-12-27T13:08:37.885Z,102461.00
2018-12-27T13:14:15.745Z,102456.73
2018-12-27T13:17:05.704Z,102461.25
2018-12-27T13:19:47.624Z,102461.98
2018-12-27T13:22:39.304Z,102459.63
2018-12-27T13:25:21.459Z,102427.68
2018-12-27T13:28:11.078Z,102456.25
2018-12-27T13:30:53.111Z,102419.94
2018-12-27T13:36:43.577Z,102450.20
2018-12-27T13:39:32.927Z,102439.13
2018-12-27T13:42:15.262Z,102415.06
2018-12-27T13:48:06.542Z,102440.88
2018-12-27T13:50:56.092Z,102411.41
2018-12-27T13:53:40.764Z,102411.66
2018-12-27T13:56:30.291Z,102400.54
2018-12-27T13:59:12.485Z,102405.61
2018-12-27T14:02:01.845Z,102410.00
2018-12-27T14:04:43.851Z,102402.89
2018-12-27T14:10:34.163Z,102432.88
2018-12-27T14:13:23.788Z,102426.91
2018-12-27T14:16:05.689Z,102403.22
2018-12-27T14:18:55.314Z,102401.84
2018-12-27T14:21:37.470Z,102385.41
2018-12-27T14:27:28.453Z,102388.41
2018-12-27T14:30:18.117Z,102387.44
2018-12-27T14:33:03.544Z,102416.23
2018-12-27T14:35:53.306Z,102391.41
2018-12-27T14:38:35.868Z,102393.56
2018-12-27T14:41:25.560Z,102393.08
2018-12-27T14:44:08.219Z,102403.63
2018-12-27T14:49:45.610Z,102424.96
2018-12-27T14:52:37.020Z,102420.27
2018-12-27T14:55:18.911Z,102418.35
2018-12-27T15:00:56.947Z,102427.28
2018-12-27T15:03:46.690Z,102401.03
2018-12-27T15:06:29.353Z,102425.94
2018-12-27T15:09:11.605Z,102405.86
2018-12-27T15:12:01.291Z,102434.98
2018-12-27T15:14:44.041Z,102423.09
2018-12-27T15:20:35.805Z,102408.62
2018-12-27T15:23:25.477Z,102431.30
2018-12-27T15:26:07.816Z,102431.34
2018-12-27T15:29:16.940Z,102406.14
2018-12-27T15:31:59.575Z,102400.83
2018-12-27T15:34:51.184Z,102418.52
2018-12-27T15:37:33.648Z,102405.81
2018-12-27T15:40:25.329Z,102408.33
2018-12-27T15:43:07.366Z,102412.14
2018-12-27T15:45:57.144Z,102410.84
2018-12-27T15:48:39.252Z,102414.58
2018-12-27T15:51:49.520Z,102444.66
2018-12-27T15:54:31.880Z,102436.77
2018-12-27T15:57:21.776Z,102441.08
2018-12-27T16:00:04.657Z,102410.44
2018-12-27T16:02:34.831Z,102435.03
2018-12-27T16:05:24.535Z,102408.70
2018-12-27T16:08:14.482Z,102433.41
2018-12-27T16:10:57.534Z,102434.02
2018-12-27T16:14:06.620Z,102443.39
2018-12-27T16:16:49.064Z,102434.42
2018-12-27T16:19:38.931Z,102413.16
2018-12-27T16:22:24.801Z,102430.32
2018-12-27T16:25:14.579Z,102435.72
2018-12-27T16:27:56.944Z,102416.94
2018-12-27T16:30:48.331Z,102415.63
2018-12-27T16:33:30.967Z,102436.58
2018-12-27T16:36:20.603Z,102414.73
2018-12-27T16:39:05.325Z,102398.15
2018-12-27T16:41:56.810Z,102424.84
2018-12-27T16:44:39.162Z,102404.40
2018-12-27T16:47:29.246Z,102405.41
2018-12-27T16:50:11.562Z,102410.23
2018-12-27T16:56:02.428Z,102432.63
2018-12-27T16:59:12.444Z,102409.66
2018-12-27T17:01:54.779Z,102433.81
2018-12-27T17:04:46.314Z,102428.91
2018-12-27T17:07:37.980Z,102433.16
2018-12-27T17:10:20.337Z,102426.47
2018-12-27T17:13:10.024Z,102413.16
2018-12-27T17:15:52.544Z,102427.64
2018-12-27T17:18:42.180Z,102418.48
2018-12-27T17:21:24.288Z,102401.64
2018-12-27T17:27:10.722Z,102420.27
2018-12-27T17:30:02.094Z,102430.20
2018-12-27T17:32:45.101Z,102422.20
2018-12-27T17:35:34.478Z,102398.55
2018-12-27T17:38:18.824Z,102395.43
2018-12-27T17:41:08.147Z,102390.80
2018-12-27T17:43:50.284Z,102401.36
2018-12-27T17:46:39.667Z,102425.53
2018-12-27T17:49:23.095Z,102426.71
2018-12-27T17:52:12.471Z,102424.89
2018-12-27T17:54:55.891Z,102424.40
2018-12-27T18:00:32.323Z,102418.47
2018-12-27T18:03:21.927Z,102391.90
2018-12-27T18:06:03.791Z,102420.75
2018-12-27T18:11:40.700Z,102437.59
2018-12-27T18:14:30.098Z,102436.25
2018-12-27T18:17:12.748Z,102438.92
2018-12-27T18:20:02.161Z,102411.21
2018-12-27T18:22:43.797Z,102408.33
2018-12-27T18:25:33.159Z,102413.81
2018-12-27T18:28:15.098Z,102412.34
2018-12-27T18:33:53.640Z,102425.17
2018-12-27T18:36:43.166Z,102416.69
2018-12-27T18:39:27.620Z,102436.90
2018-12-27T18:42:17.287Z,102441.80
2018-12-27T18:44:59.641Z,102444.56
2018-12-27T18:47:49.304Z,102413.72
2018-12-27T18:50:31.329Z,102446.55
2018-12-27T18:58:45.490Z,102432.59
2018-12-27T19:01:15.824Z,102441.97
2018-12-27T19:04:05.544Z,102429.75
2018-12-27T19:06:35.783Z,102456.05
2018-12-27T19:12:58.195Z,102451.67
2018-12-27T19:18:49.072Z,102447.73
2018-12-27T19:21:34.376Z,102448.98
2018-12-27T19:24:23.853Z,102417.73
2018-12-27T19:27:06.135Z,102420.98
2018-12-27T19:33:02.062Z,102449.84
2018-12-27T19:35:52.082Z,102449.88
2018-12-27T19:38:35.047Z,102428.78
2018-12-27T19:41:24.668Z,102459.25
2018-12-27T19:44:07.113Z,102440.70
2018-12-27T19:46:56.698Z,102458.97
2018-12-27T19:49:39.592Z,102449.67
2018-12-27T19:52:28.870Z,102467.98
2018-12-27T19:55:11.077Z,102440.09
2018-12-27T20:01:01.011Z,102442.00
2018-12-27T20:03:50.421Z,102438.30
2018-12-27T20:06:32.342Z,102432.14
2018-12-27T20:09:03.438Z,102451.63
2018-12-27T20:11:47.629Z,102449.39
2018-12-27T20:14:37.554Z,102423.50
2018-12-27T20:17:27.245Z,102441.52
2018-12-27T20:20:09.338Z,102433.80
2018-12-27T20:25:54.671Z,102444.52
2018-12-27T20:28:44.277Z,102437.83
2018-12-27T20:31:26.455Z,102412.22
2018-12-27T20:34:15.955Z,102435.67
2018-12-27T20:36:57.914Z,102423.17
2018-12-27T20:39:47.615Z,102447.03
2018-12-27T20:42:31.507Z,102426.74
2018-12-27T20:45:21.098Z,102430.88
2018-12-27T20:48:03.730Z,102424.36
2018-12-27T20:50:54.368Z,102434.30
2018-12-27T20:53:36.013Z,102441.89
2018-12-27T20:56:25.345Z,102414.33
2018-12-27T20:59:07.109Z,102403.78
2018-12-27T21:01:37.299Z,102430.61
2018-12-27T21:07:05.111Z,102432.80
2018-12-27T21:09:48.168Z,102425.17
2018-12-27T21:12:31.182Z,102405.33
2018-12-27T21:18:07.991Z,102421.39
2018-12-27T21:20:57.358Z,102400.30
2018-12-27T21:23:40.470Z,102428.09
2018-12-27T21:26:43.473Z,102430.08
2018-12-27T21:29:12.592Z,102404.15
2018-12-27T21:32:02.400Z,102398.64
2018-12-27T21:34:45.743Z,102399.77
2018-12-27T21:40:21.990Z,102388.05
2018-12-27T21:45:59.333Z,102414.66
2018-12-27T21:48:48.960Z,102384.19
2018-12-27T21:51:30.719Z,102381.88
2018-12-27T21:57:09.351Z,102377.98
2018-12-27T21:59:58.990Z,102399.41
2018-12-27T22:02:41.866Z,102403.95
2018-12-27T22:08:19.797Z,102401.20
2018-12-27T22:11:02.350Z,102375.92
2018-12-27T22:16:49.431Z,102407.64
2018-12-27T22:19:19.736Z,102407.84
2018-12-27T22:25:10.207Z,102389.19
2018-12-27T22:28:00.062Z,102384.88
2018-12-27T22:30:42.591Z,102376.77
2018-12-27T22:36:55.080Z,102375.75
2018-12-27T22:39:44.681Z,102385.78
2018-12-27T22:42:34.460Z,102409.59
2018-12-27T22:45:18.046Z,102392.83
2018-12-27T22:48:07.644Z,102407.03
2018-12-27T22:50:50.210Z,102403.02
2018-12-27T22:53:39.816Z,102389.22
2018-12-27T22:56:24.317Z,102390.48
2018-12-27T22:59:13.981Z,102409.14
2018-12-27T23:01:56.817Z,102417.45
2018-12-27T23:04:46.563Z,102387.56
2018-12-27T23:07:36.177Z,102404.19
2018-12-27T23:13:21.115Z,102405.49
2018-12-27T23:15:51.412Z,102409.99
2018-12-27T23:21:42.594Z,102382.28
2018-12-27T23:24:24.975Z,102386.27
2018-12-27T23:30:01.483Z,102411.41
2018-12-27T23:32:45.506Z,102383.74
2018-12-27T23:35:34.942Z,102384.39
2018-12-27T23:38:21.116Z,102383.66
2018-12-27T23:41:03.645Z,102382.65
2018-12-27T23:46:55.364Z,102387.68
2018-12-27T23:52:45.903Z,102420.47
2018-12-27T23:55:35.573Z,102412.34
2018-12-27T23:58:19.569Z,102416.17
